sensor_id;sensor_type;location;lat;lon;timestamp;P1;durP1;ratioP1;P2;durP2;ratioP2
5871;SDS011;2962;51.312;7.378;2022-12-10T00:01:36;61.28;;;25.85;;
5871;SDS011;2962;51.312;7.378;2022-12-10T00:04:01;113.20;;;28.53;;
5871;SDS011;2962;51.312;7.378;2022-12-10T00:06:29;74.23;;;27.53;;
5871;SDS011;2962;51.312;7.378;2022-12-10T00:08:55;63.97;;;26.55;;
5871;SDS011;2962;51.312;7.378;2022-12-10T00:11:21;57.60;;;23.87;;
5871;SDS011;2962;51.312;7.378;2022-12-10T00:13:48;52.90;;;24.08;;
5871;SDS011;2962;51.312;7.378;2022-12-10T00:16:16;61.53;;;24.00;;
5871;SDS011;2962;51.312;7.378;2022-12-10T00:18:43;63.58;;;24.77;;
5871;SDS011;2962;51.312;7.378;2022-12-10T00:21:10;62.90;;;26.20;;
5871;SDS011;2962;51.312;7.378;2022-12-10T00:23:37;58.05;;;25.38;;
5871;SDS011;2962;51.312;7.378;2022-12-10T00:26:03;69.18;;;25.50;;
5871;SDS011;2962;51.312;7.378;2022-12-10T00:28:35;57.13;;;24.27;;
5871;SDS011;2962;51.312;7.378;2022-12-10T00:31:02;56.40;;;25.00;;
5871;SDS011;2962;51.312;7.378;2022-12-10T00:33:32;46.85;;;24.20;;
5871;SDS011;2962;51.312;7.378;2022-12-10T00:36:17;48.07;;;21.73;;
5871;SDS011;2962;51.312;7.378;2022-12-10T00:38:44;66.97;;;22.42;;
5871;SDS011;2962;51.312;7.378;2022-12-10T00:41:11;42.20;;;18.77;;
5871;SDS011;2962;51.312;7.378;2022-12-10T00:43:37;37.47;;;17.80;;
5871;SDS011;2962;51.312;7.378;2022-12-10T00:46:04;37.07;;;16.43;;
5871;SDS011;2962;51.312;7.378;2022-12-10T00:48:30;32.95;;;17.83;;
5871;SDS011;2962;51.312;7.378;2022-12-10T00:51:04;36.20;;;16.93;;
5871;SDS011;2962;51.312;7.378;2022-12-10T00:53:34;34.97;;;17.73;;
5871;SDS011;2962;51.312;7.378;2022-12-10T00:56:01;39.20;;;18.75;;
5871;SDS011;2962;51.312;7.378;2022-12-10T00:58:27;31.53;;;16.30;;
5871;SDS011;2962;51.312;7.378;2022-12-10T01:00:54;26.27;;;15.82;;
5871;SDS011;2962;51.312;7.378;2022-12-10T01:03:19;32.20;;;17.10;;
5871;SDS011;2962;51.312;7.378;2022-12-10T01:05:45;32.87;;;16.50;;
5871;SDS011;2962;51.312;7.378;2022-12-10T01:08:10;28.60;;;16.13;;
5871;SDS011;2962;51.312;7.378;2022-12-10T01:10:36;29.57;;;16.00;;
5871;SDS011;2962;51.312;7.378;2022-12-10T01:13:01;33.57;;;15.40;;
5871;SDS011;2962;51.312;7.378;2022-12-10T01:15:27;29.93;;;16.10;;
5871;SDS011;2962;51.312;7.378;2022-12-10T01:17:52;28.73;;;15.63;;
5871;SDS011;2962;51.312;7.378;2022-12-10T01:20:18;35.17;;;16.13;;
5871;SDS011;2962;51.312;7.378;2022-12-10T01:22:43;31.23;;;14.47;;
5871;SDS011;2962;51.312;7.378;2022-12-10T01:25:08;35.20;;;16.60;;
5871;SDS011;2962;51.312;7.378;2022-12-10T01:27:33;28.30;;;15.40;;
5871;SDS011;2962;51.312;7.378;2022-12-10T01:29:59;29.07;;;14.90;;
5871;SDS011;2962;51.312;7.378;2022-12-10T01:32:24;32.00;;;15.57;;
5871;SDS011;2962;51.312;7.378;2022-12-10T01:34:51;31.10;;;15.70;;
5871;SDS011;2962;51.312;7.378;2022-12-10T01:37:16;30.37;;;16.63;;
5871;SDS011;2962;51.312;7.378;2022-12-10T01:39:41;30.50;;;16.63;;
5871;SDS011;2962;51.312;7.378;2022-12-10T01:42:09;31.77;;;16.57;;
5871;SDS011;2962;51.312;7.378;2022-12-10T01:47:08;29.40;;;16.38;;
5871;SDS011;2962;51.312;7.378;2022-12-10T01:49:36;28.95;;;15.50;;
5871;SDS011;2962;51.312;7.378;2022-12-10T01:52:04;26.05;;;15.00;;
5871;SDS011;2962;51.312;7.378;2022-12-10T01:54:32;28.33;;;16.25;;
5871;SDS011;2962;51.312;7.378;2022-12-10T01:59:29;26.63;;;14.55;;
5871;SDS011;2962;51.312;7.378;2022-12-10T02:02:01;27.13;;;15.52;;
5871;SDS011;2962;51.312;7.378;2022-12-10T02:05:21;24.42;;;14.30;;
5871;SDS011;2962;51.312;7.378;2022-12-10T02:08:00;20.42;;;13.30;;
5871;SDS011;2962;51.312;7.378;2022-12-10T02:11:07;21.45;;;13.20;;
5871;SDS011;2962;51.312;7.378;2022-12-10T02:14:02;22.35;;;13.68;;
5871;SDS011;2962;51.312;7.378;2022-12-10T02:16:43;22.67;;;13.75;;
5871;SDS011;2962;51.312;7.378;2022-12-10T02:19:26;25.15;;;15.55;;
5871;SDS011;2962;51.312;7.378;2022-12-10T02:22:13;21.63;;;12.38;;
5871;SDS011;2962;51.312;7.378;2022-12-10T02:24:42;28.85;;;13.95;;
5871;SDS011;2962;51.312;7.378;2022-12-10T02:27:14;23.75;;;14.25;;
5871;SDS011;2962;51.312;7.378;2022-12-10T02:29:44;28.20;;;15.43;;
5871;SDS011;2962;51.312;7.378;2022-12-10T02:32:14;27.55;;;14.80;;
5871;SDS011;2962;51.312;7.378;2022-12-10T02:34:45;25.45;;;15.13;;
5871;SDS011;2962;51.312;7.378;2022-12-10T02:37:17;27.70;;;14.55;;
5871;SDS011;2962;51.312;7.378;2022-12-10T02:39:48;23.98;;;14.02;;
5871;SDS011;2962;51.312;7.378;2022-12-10T02:42:17;28.63;;;14.38;;
5871;SDS011;2962;51.312;7.378;2022-12-10T02:44:44;25.65;;;14.80;;
5871;SDS011;2962;51.312;7.378;2022-12-10T02:47:13;27.13;;;15.43;;
5871;SDS011;2962;51.312;7.378;2022-12-10T02:49:41;27.85;;;14.82;;
5871;SDS011;2962;51.312;7.378;2022-12-10T02:52:09;22.83;;;13.80;;
5871;SDS011;2962;51.312;7.378;2022-12-10T02:54:39;23.25;;;14.52;;
5871;SDS011;2962;51.312;7.378;2022-12-10T02:57:07;23.00;;;14.20;;
5871;SDS011;2962;51.312;7.378;2022-12-10T02:59:41;25.67;;;14.82;;
5871;SDS011;2962;51.312;7.378;2022-12-10T03:02:10;21.42;;;12.95;;
5871;SDS011;2962;51.312;7.378;2022-12-10T03:04:48;22.98;;;13.60;;
5871;SDS011;2962;51.312;7.378;2022-12-10T03:07:27;20.52;;;14.15;;
5871;SDS011;2962;51.312;7.378;2022-12-10T03:10:02;26.17;;;15.25;;
5871;SDS011;2962;51.312;7.378;2022-12-10T03:12:34;23.02;;;14.32;;
5871;SDS011;2962;51.312;7.378;2022-12-10T03:15:13;27.35;;;15.52;;
5871;SDS011;2962;51.312;7.378;2022-12-10T03:17:40;25.13;;;14.10;;
5871;SDS011;2962;51.312;7.378;2022-12-10T03:20:10;19.40;;;12.80;;
5871;SDS011;2962;51.312;7.378;2022-12-10T03:22:38;24.25;;;14.32;;
5871;SDS011;2962;51.312;7.378;2022-12-10T03:25:07;20.52;;;12.52;;
5871;SDS011;2962;51.312;7.378;2022-12-10T03:27:35;25.50;;;12.75;;
5871;SDS011;2962;51.312;7.378;2022-12-10T03:30:04;18.67;;;12.25;;
5871;SDS011;2962;51.312;7.378;2022-12-10T03:32:30;24.58;;;13.27;;
5871;SDS011;2962;51.312;7.378;2022-12-10T03:34:56;19.42;;;11.85;;
5871;SDS011;2962;51.312;7.378;2022-12-10T03:37:23;19.35;;;11.15;;
5871;SDS011;2962;51.312;7.378;2022-12-10T03:39:50;19.95;;;13.02;;
5871;SDS011;2962;51.312;7.378;2022-12-10T03:42:16;17.23;;;12.38;;
5871;SDS011;2962;51.312;7.378;2022-12-10T03:44:41;20.67;;;11.40;;
5871;SDS011;2962;51.312;7.378;2022-12-10T03:47:07;21.57;;;11.87;;
5871;SDS011;2962;51.312;7.378;2022-12-10T03:49:35;21.08;;;12.63;;
5871;SDS011;2962;51.312;7.378;2022-12-10T03:52:01;26.13;;;12.17;;
5871;SDS011;2962;51.312;7.378;2022-12-10T03:54:26;23.00;;;13.57;;
5871;SDS011;2962;51.312;7.378;2022-12-10T03:56:51;18.50;;;12.23;;
5871;SDS011;2962;51.312;7.378;2022-12-10T03:59:17;17.13;;;11.30;;
5871;SDS011;2962;51.312;7.378;2022-12-10T04:01:42;20.03;;;11.43;;
5871;SDS011;2962;51.312;7.378;2022-12-10T04:04:08;21.17;;;12.47;;
5871;SDS011;2962;51.312;7.378;2022-12-10T04:06:34;20.73;;;12.57;;
5871;SDS011;2962;51.312;7.378;2022-12-10T04:08:59;21.30;;;11.57;;
5871;SDS011;2962;51.312;7.378;2022-12-10T04:11:25;19.77;;;13.13;;
5871;SDS011;2962;51.312;7.378;2022-12-10T04:13:51;26.77;;;13.00;;
5871;SDS011;2962;51.312;7.378;2022-12-10T04:16:35;21.33;;;12.30;;
5871;SDS011;2962;51.312;7.378;2022-12-10T04:19:03;18.65;;;11.88;;
5871;SDS011;2962;51.312;7.378;2022-12-10T04:21:29;21.15;;;12.55;;
5871;SDS011;2962;51.312;7.378;2022-12-10T04:24:16;18.58;;;12.43;;
5871;SDS011;2962;51.312;7.378;2022-12-10T04:27:02;23.77;;;12.65;;
5871;SDS011;2962;51.312;7.378;2022-12-10T04:29:31;19.20;;;12.63;;
5871;SDS011;2962;51.312;7.378;2022-12-10T04:31:57;23.57;;;12.30;;
5871;SDS011;2962;51.312;7.378;2022-12-10T04:34:23;21.33;;;12.45;;
5871;SDS011;2962;51.312;7.378;2022-12-10T04:36:49;16.40;;;11.43;;
5871;SDS011;2962;51.312;7.378;2022-12-10T04:39:15;19.40;;;12.10;;
5871;SDS011;2962;51.312;7.378;2022-12-10T04:41:41;20.50;;;12.77;;
5871;SDS011;2962;51.312;7.378;2022-12-10T04:44:09;19.25;;;11.85;;
5871;SDS011;2962;51.312;7.378;2022-12-10T04:46:35;20.50;;;11.83;;
5871;SDS011;2962;51.312;7.378;2022-12-10T04:49:01;20.17;;;12.63;;
5871;SDS011;2962;51.312;7.378;2022-12-10T04:51:27;19.88;;;12.25;;
5871;SDS011;2962;51.312;7.378;2022-12-10T04:53:52;17.30;;;11.83;;
5871;SDS011;2962;51.312;7.378;2022-12-10T04:56:17;22.93;;;12.23;;
5871;SDS011;2962;51.312;7.378;2022-12-10T04:58:43;22.40;;;13.87;;
5871;SDS011;2962;51.312;7.378;2022-12-10T05:01:09;23.10;;;12.27;;
5871;SDS011;2962;51.312;7.378;2022-12-10T05:03:36;18.70;;;12.18;;
5871;SDS011;2962;51.312;7.378;2022-12-10T05:06:02;19.80;;;12.03;;
5871;SDS011;2962;51.312;7.378;2022-12-10T05:08:29;27.75;;;13.10;;
5871;SDS011;2962;51.312;7.378;2022-12-10T05:10:55;20.53;;;12.70;;
5871;SDS011;2962;51.312;7.378;2022-12-10T05:13:20;17.77;;;12.38;;
5871;SDS011;2962;51.312;7.378;2022-12-10T05:15:46;20.77;;;13.10;;
5871;SDS011;2962;51.312;7.378;2022-12-10T05:18:11;25.37;;;14.57;;
5871;SDS011;2962;51.312;7.378;2022-12-10T05:20:36;28.30;;;16.23;;
5871;SDS011;2962;51.312;7.378;2022-12-10T05:23:02;31.20;;;17.37;;
5871;SDS011;2962;51.312;7.378;2022-12-10T05:25:46;26.52;;;14.25;;
5871;SDS011;2962;51.312;7.378;2022-12-10T05:28:21;21.90;;;13.75;;
5871;SDS011;2962;51.312;7.378;2022-12-10T05:30:47;25.58;;;13.80;;
5871;SDS011;2962;51.312;7.378;2022-12-10T05:33:13;28.93;;;14.27;;
5871;SDS011;2962;51.312;7.378;2022-12-10T05:35:38;22.60;;;13.90;;
5871;SDS011;2962;51.312;7.378;2022-12-10T05:38:03;27.40;;;14.50;;
5871;SDS011;2962;51.312;7.378;2022-12-10T05:40:30;25.73;;;13.88;;
5871;SDS011;2962;51.312;7.378;2022-12-10T05:42:55;24.13;;;14.40;;
5871;SDS011;2962;51.312;7.378;2022-12-10T05:45:21;20.20;;;13.50;;
5871;SDS011;2962;51.312;7.378;2022-12-10T05:47:46;21.60;;;11.93;;
5871;SDS011;2962;51.312;7.378;2022-12-10T05:50:12;24.60;;;14.10;;
5871;SDS011;2962;51.312;7.378;2022-12-10T05:52:37;22.00;;;14.00;;
5871;SDS011;2962;51.312;7.378;2022-12-10T05:55:02;19.83;;;12.43;;
5871;SDS011;2962;51.312;7.378;2022-12-10T05:57:28;24.50;;;12.80;;
5871;SDS011;2962;51.312;7.378;2022-12-10T05:59:53;21.30;;;13.13;;
5871;SDS011;2962;51.312;7.378;2022-12-10T06:02:18;19.93;;;12.53;;
5871;SDS011;2962;51.312;7.378;2022-12-10T06:04:44;20.50;;;13.23;;
5871;SDS011;2962;51.312;7.378;2022-12-10T06:07:10;25.15;;;14.98;;
5871;SDS011;2962;51.312;7.378;2022-12-10T06:09:35;25.90;;;14.57;;
5871;SDS011;2962;51.312;7.378;2022-12-10T06:12:00;24.00;;;13.83;;
5871;SDS011;2962;51.312;7.378;2022-12-10T06:14:26;25.47;;;14.07;;
5871;SDS011;2962;51.312;7.378;2022-12-10T06:16:51;26.17;;;15.73;;
5871;SDS011;2962;51.312;7.378;2022-12-10T06:19:16;24.20;;;14.80;;
5871;SDS011;2962;51.312;7.378;2022-12-10T06:21:42;25.67;;;15.50;;
5871;SDS011;2962;51.312;7.378;2022-12-10T06:24:07;22.83;;;13.60;;
5871;SDS011;2962;51.312;7.378;2022-12-10T06:26:32;24.60;;;14.00;;
5871;SDS011;2962;51.312;7.378;2022-12-10T06:28:57;25.07;;;13.90;;
5871;SDS011;2962;51.312;7.378;2022-12-10T06:31:23;20.73;;;13.63;;
5871;SDS011;2962;51.312;7.378;2022-12-10T06:33:48;21.73;;;12.97;;
5871;SDS011;2962;51.312;7.378;2022-12-10T06:36:14;23.50;;;13.93;;
5871;SDS011;2962;51.312;7.378;2022-12-10T06:38:41;24.17;;;14.60;;
5871;SDS011;2962;51.312;7.378;2022-12-10T06:41:07;21.83;;;12.57;;
5871;SDS011;2962;51.312;7.378;2022-12-10T06:43:34;21.40;;;12.88;;
5871;SDS011;2962;51.312;7.378;2022-12-10T06:46:03;25.37;;;13.57;;
5871;SDS011;2962;51.312;7.378;2022-12-10T06:48:37;27.67;;;13.63;;
5871;SDS011;2962;51.312;7.378;2022-12-10T06:51:03;17.50;;;11.47;;
5871;SDS011;2962;51.312;7.378;2022-12-10T06:53:30;20.95;;;10.93;;
5871;SDS011;2962;51.312;7.378;2022-12-10T06:56:00;23.15;;;12.43;;
5871;SDS011;2962;51.312;7.378;2022-12-10T06:58:27;25.52;;;14.60;;
5871;SDS011;2962;51.312;7.378;2022-12-10T07:00:53;21.65;;;12.90;;
5871;SDS011;2962;51.312;7.378;2022-12-10T07:03:19;20.10;;;12.97;;
5871;SDS011;2962;51.312;7.378;2022-12-10T07:05:44;23.57;;;13.17;;
5871;SDS011;2962;51.312;7.378;2022-12-10T07:08:09;22.43;;;12.10;;
5871;SDS011;2962;51.312;7.378;2022-12-10T07:10:36;27.57;;;13.60;;
5871;SDS011;2962;51.312;7.378;2022-12-10T07:13:02;26.23;;;14.13;;
5871;SDS011;2962;51.312;7.378;2022-12-10T07:15:27;22.33;;;13.10;;
5871;SDS011;2962;51.312;7.378;2022-12-10T07:17:53;21.63;;;12.80;;
5871;SDS011;2962;51.312;7.378;2022-12-10T07:20:18;26.17;;;13.27;;
5871;SDS011;2962;51.312;7.378;2022-12-10T07:22:44;21.40;;;12.07;;
5871;SDS011;2962;51.312;7.378;2022-12-10T07:25:09;23.97;;;14.00;;
5871;SDS011;2962;51.312;7.378;2022-12-10T07:27:34;26.27;;;14.47;;
5871;SDS011;2962;51.312;7.378;2022-12-10T07:30:00;22.83;;;12.80;;
5871;SDS011;2962;51.312;7.378;2022-12-10T07:32:26;23.43;;;14.07;;
5871;SDS011;2962;51.312;7.378;2022-12-10T07:34:52;23.83;;;14.13;;
5871;SDS011;2962;51.312;7.378;2022-12-10T07:37:17;22.90;;;13.13;;
5871;SDS011;2962;51.312;7.378;2022-12-10T07:39:42;24.23;;;12.80;;
5871;SDS011;2962;51.312;7.378;2022-12-10T07:42:08;22.73;;;13.70;;
5871;SDS011;2962;51.312;7.378;2022-12-10T07:44:33;24.70;;;12.87;;
5871;SDS011;2962;51.312;7.378;2022-12-10T07:46:59;26.90;;;14.17;;
5871;SDS011;2962;51.312;7.378;2022-12-10T07:49:24;19.10;;;12.37;;
5871;SDS011;2962;51.312;7.378;2022-12-10T07:51:50;25.97;;;13.93;;
5871;SDS011;2962;51.312;7.378;2022-12-10T07:54:15;25.70;;;14.03;;
5871;SDS011;2962;51.312;7.378;2022-12-10T07:56:42;24.90;;;13.27;;
5871;SDS011;2962;51.312;7.378;2022-12-10T07:59:08;21.27;;;12.80;;
5871;SDS011;2962;51.312;7.378;2022-12-10T08:01:33;22.17;;;13.50;;
5871;SDS011;2962;51.312;7.378;2022-12-10T08:03:59;24.37;;;13.03;;
5871;SDS011;2962;51.312;7.378;2022-12-10T08:06:25;27.47;;;14.50;;
5871;SDS011;2962;51.312;7.378;2022-12-10T08:08:51;24.75;;;13.43;;
5871;SDS011;2962;51.312;7.378;2022-12-10T08:11:17;26.47;;;14.77;;
5871;SDS011;2962;51.312;7.378;2022-12-10T08:13:44;27.73;;;15.30;;
5871;SDS011;2962;51.312;7.378;2022-12-10T08:16:15;35.45;;;15.70;;
5871;SDS011;2962;51.312;7.378;2022-12-10T08:18:42;24.55;;;13.48;;
5871;SDS011;2962;51.312;7.378;2022-12-10T08:21:09;24.67;;;14.20;;
5871;SDS011;2962;51.312;7.378;2022-12-10T08:23:39;25.60;;;13.55;;
5871;SDS011;2962;51.312;7.378;2022-12-10T08:26:06;25.75;;;14.20;;
5871;SDS011;2962;51.312;7.378;2022-12-10T08:28:33;32.28;;;15.80;;
5871;SDS011;2962;51.312;7.378;2022-12-10T08:30:58;27.20;;;15.23;;
5871;SDS011;2962;51.312;7.378;2022-12-10T08:33:24;34.00;;;17.60;;
5871;SDS011;2962;51.312;7.378;2022-12-10T08:35:49;29.90;;;15.00;;
5871;SDS011;2962;51.312;7.378;2022-12-10T08:38:14;32.83;;;19.00;;
5871;SDS011;2962;51.312;7.378;2022-12-10T08:40:40;26.20;;;15.33;;
5871;SDS011;2962;51.312;7.378;2022-12-10T08:43:06;29.33;;;15.55;;
5871;SDS011;2962;51.312;7.378;2022-12-10T08:45:31;29.20;;;16.27;;
5871;SDS011;2962;51.312;7.378;2022-12-10T08:47:57;39.40;;;17.80;;
5871;SDS011;2962;51.312;7.378;2022-12-10T08:50:22;34.00;;;18.03;;
5871;SDS011;2962;51.312;7.378;2022-12-10T08:52:47;42.23;;;21.83;;
5871;SDS011;2962;51.312;7.378;2022-12-10T08:55:13;40.13;;;21.00;;
5871;SDS011;2962;51.312;7.378;2022-12-10T08:57:38;41.87;;;22.13;;
5871;SDS011;2962;51.312;7.378;2022-12-10T09:00:03;55.70;;;26.60;;
5871;SDS011;2962;51.312;7.378;2022-12-10T09:02:29;43.67;;;21.00;;
5871;SDS011;2962;51.312;7.378;2022-12-10T09:04:54;35.90;;;19.20;;
5871;SDS011;2962;51.312;7.378;2022-12-10T09:07:20;37.13;;;18.83;;
5871;SDS011;2962;51.312;7.378;2022-12-10T09:09:45;33.37;;;18.60;;
5871;SDS011;2962;51.312;7.378;2022-12-10T09:12:11;35.20;;;18.10;;
5871;SDS011;2962;51.312;7.378;2022-12-10T09:14:36;30.10;;;17.10;;
5871;SDS011;2962;51.312;7.378;2022-12-10T09:17:03;30.90;;;17.50;;
5871;SDS011;2962;51.312;7.378;2022-12-10T09:19:29;26.70;;;14.90;;
5871;SDS011;2962;51.312;7.378;2022-12-10T09:21:54;27.80;;;16.30;;
5871;SDS011;2962;51.312;7.378;2022-12-10T09:24:20;43.93;;;22.47;;
5871;SDS011;2962;51.312;7.378;2022-12-10T09:26:45;35.73;;;17.97;;
5871;SDS011;2962;51.312;7.378;2022-12-10T09:29:12;33.25;;;18.63;;
5871;SDS011;2962;51.312;7.378;2022-12-10T09:31:38;25.58;;;15.82;;
5871;SDS011;2962;51.312;7.378;2022-12-10T09:34:03;32.33;;;17.37;;
5871;SDS011;2962;51.312;7.378;2022-12-10T09:36:28;33.47;;;17.20;;
5871;SDS011;2962;51.312;7.378;2022-12-10T09:38:54;31.10;;;17.00;;
5871;SDS011;2962;51.312;7.378;2022-12-10T09:46:53;30.15;;;17.30;;
5871;SDS011;2962;51.312;7.378;2022-12-10T09:52:24;22.63;;;14.88;;
5871;SDS011;2962;51.312;7.378;2022-12-10T09:54:55;33.83;;;17.40;;
5871;SDS011;2962;51.312;7.378;2022-12-10T09:57:38;26.60;;;15.60;;
5871;SDS011;2962;51.312;7.378;2022-12-10T10:02:55;24.50;;;15.45;;
5871;SDS011;2962;51.312;7.378;2022-12-10T10:05:29;29.75;;;13.95;;
5871;SDS011;2962;51.312;7.378;2022-12-10T10:08:04;26.55;;;13.73;;
5871;SDS011;2962;51.312;7.378;2022-12-10T10:10:37;29.33;;;13.73;;
5871;SDS011;2962;51.312;7.378;2022-12-10T10:15:34;31.90;;;15.48;;
5871;SDS011;2962;51.312;7.378;2022-12-10T10:18:03;32.88;;;15.48;;
5871;SDS011;2962;51.312;7.378;2022-12-10T10:20:36;29.50;;;14.90;;
5871;SDS011;2962;51.312;7.378;2022-12-10T10:23:01;31.67;;;16.27;;
5871;SDS011;2962;51.312;7.378;2022-12-10T10:25:26;29.27;;;15.77;;
5871;SDS011;2962;51.312;7.378;2022-12-10T10:27:53;30.58;;;15.40;;
5871;SDS011;2962;51.312;7.378;2022-12-10T10:30:20;32.80;;;17.00;;
5871;SDS011;2962;51.312;7.378;2022-12-10T10:35:25;41.30;;;17.67;;
5871;SDS011;2962;51.312;7.378;2022-12-10T10:38:13;39.22;;;16.60;;
5871;SDS011;2962;51.312;7.378;2022-12-10T10:40:46;34.10;;;16.88;;
5871;SDS011;2962;51.312;7.378;2022-12-10T10:43:38;42.58;;;19.08;;
5871;SDS011;2962;51.312;7.378;2022-12-10T10:46:14;36.33;;;18.00;;
5871;SDS011;2962;51.312;7.378;2022-12-10T10:48:41;43.88;;;20.25;;
5871;SDS011;2962;51.312;7.378;2022-12-10T10:51:08;41.47;;;18.63;;
5871;SDS011;2962;51.312;7.378;2022-12-10T10:53:41;49.42;;;21.13;;
5871;SDS011;2962;51.312;7.378;2022-12-10T10:56:15;46.42;;;20.73;;
5871;SDS011;2962;51.312;7.378;2022-12-10T11:01:26;53.42;;;20.15;;
5871;SDS011;2962;51.312;7.378;2022-12-10T11:04:07;42.95;;;20.90;;
5871;SDS011;2962;51.312;7.378;2022-12-10T11:06:33;59.70;;;23.37;;
5871;SDS011;2962;51.312;7.378;2022-12-10T11:08:58;56.17;;;22.83;;
5871;SDS011;2962;51.312;7.378;2022-12-10T11:11:31;47.40;;;21.93;;
5871;SDS011;2962;51.312;7.378;2022-12-10T11:16:59;54.10;;;21.70;;
5871;SDS011;2962;51.312;7.378;2022-12-10T11:19:26;59.10;;;21.73;;
5871;SDS011;2962;51.312;7.378;2022-12-10T11:21:51;54.27;;;23.57;;
5871;SDS011;2962;51.312;7.378;2022-12-10T11:24:18;52.83;;;23.37;;
5871;SDS011;2962;51.312;7.378;2022-12-10T11:32:03;53.22;;;22.35;;
5871;SDS011;2962;51.312;7.378;2022-12-10T11:34:58;56.92;;;22.10;;
5871;SDS011;2962;51.312;7.378;2022-12-10T11:50:45;57.85;;;21.45;;
5871;SDS011;2962;51.312;7.378;2022-12-10T11:58:46;47.80;;;21.67;;
5871;SDS011;2962;51.312;7.378;2022-12-10T12:04:10;52.30;;;21.45;;
5871;SDS011;2962;51.312;7.378;2022-12-10T12:06:52;44.50;;;20.73;;
5871;SDS011;2962;51.312;7.378;2022-12-10T12:09:42;46.10;;;22.77;;
5871;SDS011;2962;51.312;7.378;2022-12-10T12:15:16;54.33;;;21.58;;
5871;SDS011;2962;51.312;7.378;2022-12-10T12:18:07;52.97;;;24.33;;
5871;SDS011;2962;51.312;7.378;2022-12-10T12:20:50;54.88;;;23.90;;
5871;SDS011;2962;51.312;7.378;2022-12-10T12:23:24;57.60;;;24.42;;
5871;SDS011;2962;51.312;7.378;2022-12-10T12:26:02;52.70;;;24.02;;
5871;SDS011;2962;51.312;7.378;2022-12-10T12:28:32;51.03;;;25.10;;
5871;SDS011;2962;51.312;7.378;2022-12-10T12:31:06;47.50;;;22.65;;
5871;SDS011;2962;51.312;7.378;2022-12-10T12:33:41;54.10;;;23.73;;
5871;SDS011;2962;51.312;7.378;2022-12-10T12:36:21;47.17;;;22.23;;
5871;SDS011;2962;51.312;7.378;2022-12-10T12:47:22;47.42;;;22.75;;
5871;SDS011;2962;51.312;7.378;2022-12-10T12:50:05;52.88;;;21.50;;
5871;SDS011;2962;51.312;7.378;2022-12-10T12:52:44;44.65;;;20.95;;
5871;SDS011;2962;51.312;7.378;2022-12-10T12:55:17;40.92;;;20.75;;
5871;SDS011;2962;51.312;7.378;2022-12-10T12:57:49;46.17;;;20.58;;
5871;SDS011;2962;51.312;7.378;2022-12-10T13:00:20;43.58;;;20.67;;
5871;SDS011;2962;51.312;7.378;2022-12-10T13:05:29;47.08;;;21.20;;
5871;SDS011;2962;51.312;7.378;2022-12-10T13:10:53;46.50;;;21.60;;
5871;SDS011;2962;51.312;7.378;2022-12-10T13:15:53;41.75;;;21.15;;
5871;SDS011;2962;51.312;7.378;2022-12-10T13:18:21;45.30;;;21.95;;
5871;SDS011;2962;51.312;7.378;2022-12-10T13:21:17;46.42;;;23.20;;
5871;SDS011;2962;51.312;7.378;2022-12-10T13:23:52;54.78;;;24.65;;
5871;SDS011;2962;51.312;7.378;2022-12-10T13:26:30;47.60;;;22.25;;
5871;SDS011;2962;51.312;7.378;2022-12-10T13:28:56;47.28;;;22.70;;
5871;SDS011;2962;51.312;7.378;2022-12-10T13:31:38;50.25;;;21.42;;
5871;SDS011;2962;51.312;7.378;2022-12-10T13:34:05;49.53;;;23.00;;
5871;SDS011;2962;51.312;7.378;2022-12-10T13:39:12;47.50;;;22.10;;
5871;SDS011;2962;51.312;7.378;2022-12-10T13:41:41;49.72;;;21.10;;
5871;SDS011;2962;51.312;7.378;2022-12-10T13:45:04;40.00;;;20.17;;
5871;SDS011;2962;51.312;7.378;2022-12-10T13:50:25;41.63;;;20.25;;
5871;SDS011;2962;51.312;7.378;2022-12-10T13:53:03;48.38;;;22.27;;
5871;SDS011;2962;51.312;7.378;2022-12-10T14:01:24;47.92;;;21.83;;
5871;SDS011;2962;51.312;7.378;2022-12-10T14:06:49;43.00;;;20.05;;
5871;SDS011;2962;51.312;7.378;2022-12-10T14:09:23;44.63;;;19.15;;
5871;SDS011;2962;51.312;7.378;2022-12-10T14:12:01;45.50;;;18.20;;
5871;SDS011;2962;51.312;7.378;2022-12-10T14:14:34;37.85;;;18.60;;
5871;SDS011;2962;51.312;7.378;2022-12-10T14:17:20;35.33;;;18.40;;
5871;SDS011;2962;51.312;7.378;2022-12-10T14:19:54;43.08;;;17.65;;
5871;SDS011;2962;51.312;7.378;2022-12-10T14:22:39;38.97;;;18.03;;
5871;SDS011;2962;51.312;7.378;2022-12-10T14:25:15;44.90;;;18.33;;
5871;SDS011;2962;51.312;7.378;2022-12-10T14:27:42;42.92;;;18.40;;
5871;SDS011;2962;51.312;7.378;2022-12-10T14:30:15;39.90;;;18.70;;
5871;SDS011;2962;51.312;7.378;2022-12-10T14:32:44;40.97;;;18.23;;
5871;SDS011;2962;51.312;7.378;2022-12-10T14:35:14;42.95;;;20.45;;
5871;SDS011;2962;51.312;7.378;2022-12-10T14:37:44;40.60;;;18.48;;
5871;SDS011;2962;51.312;7.378;2022-12-10T14:40:17;38.60;;;19.10;;
5871;SDS011;2962;51.312;7.378;2022-12-10T14:42:48;47.83;;;20.55;;
5871;SDS011;2962;51.312;7.378;2022-12-10T14:45:15;51.97;;;21.70;;
5871;SDS011;2962;51.312;7.378;2022-12-10T14:47:41;53.00;;;22.40;;
5871;SDS011;2962;51.312;7.378;2022-12-10T14:50:13;55.37;;;22.33;;
5871;SDS011;2962;51.312;7.378;2022-12-10T14:52:42;47.60;;;21.42;;
5871;SDS011;2962;51.312;7.378;2022-12-10T14:55:13;44.13;;;20.40;;
5871;SDS011;2962;51.312;7.378;2022-12-10T14:57:41;45.33;;;20.85;;
5871;SDS011;2962;51.312;7.378;2022-12-10T15:00:10;42.05;;;20.67;;
5871;SDS011;2962;51.312;7.378;2022-12-10T15:02:40;49.67;;;20.98;;
5871;SDS011;2962;51.312;7.378;2022-12-10T15:05:17;45.17;;;21.02;;
5871;SDS011;2962;51.312;7.378;2022-12-10T15:07:49;44.15;;;21.77;;
5871;SDS011;2962;51.312;7.378;2022-12-10T15:10:28;42.00;;;19.10;;
5871;SDS011;2962;51.312;7.378;2022-12-10T15:12:59;46.20;;;20.95;;
5871;SDS011;2962;51.312;7.378;2022-12-10T15:15:34;44.92;;;20.83;;
5871;SDS011;2962;51.312;7.378;2022-12-10T15:23:19;51.33;;;21.10;;
5871;SDS011;2962;51.312;7.378;2022-12-10T15:28:32;53.60;;;21.70;;
5871;SDS011;2962;51.312;7.378;2022-12-10T15:33:47;45.15;;;20.42;;
5871;SDS011;2962;51.312;7.378;2022-12-10T15:36:20;53.80;;;22.45;;
5871;SDS011;2962;51.312;7.378;2022-12-10T15:38:45;49.53;;;21.20;;
5871;SDS011;2962;51.312;7.378;2022-12-10T15:44:04;48.70;;;23.17;;
5871;SDS011;2962;51.312;7.378;2022-12-10T15:46:47;57.75;;;22.52;;
5871;SDS011;2962;51.312;7.378;2022-12-10T15:49:22;61.35;;;22.92;;
5871;SDS011;2962;51.312;7.378;2022-12-10T15:51:47;53.57;;;22.10;;
5871;SDS011;2962;51.312;7.378;2022-12-10T15:54:34;51.70;;;23.40;;
5871;SDS011;2962;51.312;7.378;2022-12-10T15:57:04;48.88;;;20.92;;
5871;SDS011;2962;51.312;7.378;2022-12-10T15:59:36;61.15;;;23.20;;
5871;SDS011;2962;51.312;7.378;2022-12-10T16:02:01;52.63;;;22.60;;
5871;SDS011;2962;51.312;7.378;2022-12-10T16:04:28;52.13;;;21.83;;
5871;SDS011;2962;51.312;7.378;2022-12-10T16:06:53;48.63;;;21.27;;
5871;SDS011;2962;51.312;7.378;2022-12-10T16:09:18;98.63;;;36.13;;
5871;SDS011;2962;51.312;7.378;2022-12-10T16:11:43;50.20;;;22.03;;
5871;SDS011;2962;51.312;7.378;2022-12-10T16:14:08;72.97;;;32.00;;
5871;SDS011;2962;51.312;7.378;2022-12-10T16:16:35;69.03;;;34.05;;
5871;SDS011;2962;51.312;7.378;2022-12-10T16:19:00;58.80;;;24.40;;
5871;SDS011;2962;51.312;7.378;2022-12-10T16:21:26;58.20;;;23.50;;
5871;SDS011;2962;51.312;7.378;2022-12-10T16:23:51;61.20;;;26.30;;
5871;SDS011;2962;51.312;7.378;2022-12-10T16:26:19;57.03;;;24.35;;
5871;SDS011;2962;51.312;7.378;2022-12-10T16:28:46;52.30;;;23.25;;
5871;SDS011;2962;51.312;7.378;2022-12-10T16:31:17;52.35;;;22.10;;
5871;SDS011;2962;51.312;7.378;2022-12-10T16:33:45;52.40;;;23.77;;
5871;SDS011;2962;51.312;7.378;2022-12-10T16:36:11;58.45;;;24.60;;
5871;SDS011;2962;51.312;7.378;2022-12-10T16:38:37;68.47;;;27.40;;
5871;SDS011;2962;51.312;7.378;2022-12-10T16:41:03;63.28;;;25.05;;
5871;SDS011;2962;51.312;7.378;2022-12-10T16:43:39;62.05;;;24.88;;